createdAt,value
2018-12-19T00:01:52.985Z,29.35
2018-12-19T00:04:22.833Z,34.75
2018-12-19T00:06:53.151Z,30.00
2018-12-19T00:09:20.405Z,31.73
2018-12-19T00:11:50.105Z,34.92
2018-12-19T00:14:17.429Z,28.35
2018-12-19T00:16:48.777Z,36.80
2018-12-19T00:19:19.760Z,30.97
2018-12-19T00:21:49.051Z,37.53
2018-12-19T00:24:16.906Z,34.67
2018-12-19T00:26:48.519Z,34.92
2018-12-19T00:29:18.055Z,31.80
2018-12-19T00:32:02.298Z,35.98
2018-12-19T00:34:34.228Z,27.32
2018-12-19T00:37:07.950Z,31.30
2018-12-19T00:39:35.477Z,31.27
2018-12-19T00:42:02.737Z,28.62
2018-12-19T00:44:29.956Z,36.38
2018-12-19T00:47:04.316Z,35.98
2018-12-19T00:49:31.576Z,28.83
2018-12-19T00:51:58.828Z,30.35
2018-12-19T00:54:26.053Z,29.32
2018-12-19T00:56:53.936Z,39.00
2018-12-19T00:59:21.174Z,43.73
2018-12-19T01:01:48.435Z,37.60
2018-12-19T01:04:15.665Z,30.00
2018-12-19T01:06:43.613Z,36.77
2018-12-19T01:09:15.886Z,33.90
2018-12-19T01:11:40.384Z,39.75
2018-12-19T01:14:09.710Z,34.80
2018-12-19T01:16:38.046Z,43.60
2018-12-19T01:19:06.325Z,35.83
2018-12-19T01:21:33.984Z,30.05
2018-12-19T01:24:01.249Z,33.18
2018-12-19T01:26:28.597Z,33.45
2018-12-19T01:28:55.848Z,30.68
2018-12-19T01:31:24.070Z,34.80
2018-12-19T01:33:52.356Z,31.75
2018-12-19T01:36:20.556Z,31.90
2018-12-19T01:38:50.049Z,28.83
2018-12-19T01:41:17.324Z,30.35
2018-12-19T01:43:44.564Z,29.32
2018-12-19T01:46:11.937Z,29.07
2018-12-19T01:48:39.156Z,34.75
2018-12-19T01:51:07.606Z,30.05
2018-12-19T01:53:34.970Z,30.92
2018-12-19T01:56:02.344Z,29.12
2018-12-19T01:58:29.624Z,33.08
2018-12-19T02:00:56.945Z,29.60
2018-12-19T02:03:27.692Z,28.23
2018-12-19T02:05:56.981Z,35.10
2018-12-19T02:08:24.316Z,33.00
2018-12-19T02:10:51.564Z,29.65
2018-12-19T02:13:18.787Z,37.35
2018-12-19T02:15:46.092Z,35.23
2018-12-19T02:18:16.197Z,35.38
2018-12-19T02:20:43.523Z,32.90
2018-12-19T02:23:10.780Z,26.45
2018-12-19T02:25:38.219Z,28.35
2018-12-19T02:28:06.565Z,33.85
2018-12-19T02:30:50.953Z,27.80
2018-12-19T02:33:18.308Z,30.40
2018-12-19T02:35:45.640Z,29.95
2018-12-19T02:38:14.120Z,29.82
2018-12-19T02:40:41.452Z,28.12
2018-12-19T02:43:08.762Z,29.15
2018-12-19T02:45:36.041Z,27.95
2018-12-19T02:48:03.283Z,28.77
2018-12-19T02:50:30.508Z,31.55
2018-12-19T02:52:57.822Z,29.00
2018-12-19T02:55:25.045Z,28.17
2018-12-19T02:57:53.388Z,23.92
2018-12-19T03:00:20.633Z,23.30
2018-12-19T03:02:47.894Z,23.42
2018-12-19T03:05:15.261Z,27.52
2018-12-19T03:07:42.536Z,24.30
2018-12-19T03:10:09.928Z,26.95
2018-12-19T03:12:37.264Z,22.82
2018-12-19T03:15:04.797Z,25.05
2018-12-19T03:17:35.279Z,26.55
2018-12-19T03:20:02.660Z,29.65
2018-12-19T03:22:30.062Z,25.95
2018-12-19T03:24:57.314Z,31.20
2018-12-19T03:27:24.601Z,27.05
2018-12-19T03:29:51.834Z,27.17
2018-12-19T03:32:19.234Z,29.40
2018-12-19T03:34:46.448Z,27.73
2018-12-19T03:37:13.690Z,25.88
2018-12-19T03:39:40.908Z,32.10
2018-12-19T03:42:08.132Z,25.82
2018-12-19T03:44:35.364Z,26.15
2018-12-19T03:47:02.640Z,29.60
2018-12-19T03:49:30.201Z,31.20
2018-12-19T03:51:57.469Z,27.02
2018-12-19T03:54:25.249Z,28.32
2018-12-19T03:56:52.893Z,32.03
2018-12-19T03:59:20.128Z,31.97
2018-12-19T04:01:47.372Z,23.60
2018-12-19T04:04:14.598Z,21.02
2018-12-19T04:06:42.876Z,25.45
2018-12-19T04:09:10.105Z,30.77
2018-12-19T04:11:37.346Z,31.87
2018-12-19T04:14:05.735Z,24.02
2018-12-19T04:16:32.971Z,28.85
2018-12-19T04:19:00.269Z,29.50
2018-12-19T04:21:30.676Z,29.32
2018-12-19T04:23:57.913Z,24.82
2018-12-19T04:26:26.141Z,30.00
2018-12-19T04:28:53.467Z,26.70
2018-12-19T04:31:21.829Z,29.87
2018-12-19T04:33:49.058Z,27.13
2018-12-19T04:36:16.447Z,27.58
2018-12-19T04:38:44.016Z,28.00
2018-12-19T04:41:11.492Z,31.55
2018-12-19T04:43:38.864Z,30.35
2018-12-19T04:46:06.080Z,30.82
2018-12-19T04:48:33.300Z,25.12
2018-12-19T04:51:00.580Z,26.93
2018-12-19T04:53:27.901Z,28.40
2018-12-19T04:55:55.140Z,29.92
2018-12-19T04:58:22.361Z,27.98
2018-12-19T05:00:49.597Z,34.43
2018-12-19T05:03:16.837Z,33.55
2018-12-19T05:05:44.062Z,29.32
2018-12-19T05:08:11.280Z,38.15
2018-12-19T05:10:40.507Z,27.40
2018-12-19T05:13:07.711Z,31.65
2018-12-19T05:15:35.929Z,34.23
2018-12-19T05:18:03.210Z,30.10
2018-12-19T05:20:30.446Z,33.53
2018-12-19T05:22:57.692Z,32.30
2018-12-19T05:25:24.941Z,34.45
2018-12-19T05:27:52.204Z,32.45
2018-12-19T05:30:20.479Z,28.47
2018-12-19T05:32:47.821Z,31.37
2018-12-19T05:35:16.049Z,32.65
2018-12-19T05:37:43.304Z,30.57
2018-12-19T05:40:10.548Z,32.78
2018-12-19T05:42:37.776Z,36.53
2018-12-19T05:45:06.848Z,33.80
2018-12-19T05:47:34.346Z,32.70
2018-12-19T05:50:14.526Z,27.25
2018-12-19T05:52:42.068Z,39.13
2018-12-19T05:55:09.336Z,73.40
2018-12-19T05:57:36.739Z,56.02
2018-12-19T06:00:07.015Z,27.20
2018-12-19T06:02:35.372Z,32.85
2018-12-19T06:05:18.372Z,34.10
2018-12-19T06:07:45.669Z,33.98
2018-12-19T06:10:14.004Z,28.35
2018-12-19T06:12:41.477Z,34.88
2018-12-19T06:15:08.905Z,32.73
2018-12-19T06:17:36.184Z,32.45
2018-12-19T06:20:04.942Z,33.10
2018-12-19T06:22:33.387Z,30.23
2018-12-19T06:25:05.228Z,31.75
2018-12-19T06:27:33.685Z,31.75
2018-12-19T06:30:00.950Z,33.98
2018-12-19T06:32:28.260Z,35.15
2018-12-19T06:34:55.544Z,29.10
2018-12-19T06:37:23.862Z,35.38
2018-12-19T06:39:51.206Z,31.05
2018-12-19T06:42:18.498Z,37.13
2018-12-19T06:44:47.884Z,41.02
2018-12-19T06:47:16.284Z,31.93
2018-12-19T06:49:44.589Z,31.50
2018-12-19T06:52:12.867Z,32.83
2018-12-19T06:54:40.232Z,38.80
2018-12-19T06:57:07.515Z,33.10
2018-12-19T06:59:34.876Z,33.90
2018-12-19T07:02:02.392Z,38.53
2018-12-19T07:04:29.644Z,34.73
2018-12-19T07:06:57.124Z,27.22
2018-12-19T07:09:24.479Z,40.95
2018-12-19T07:11:51.779Z,32.73
2018-12-19T07:14:21.148Z,32.63
2018-12-19T07:16:49.476Z,36.08
2018-12-19T07:19:18.756Z,32.45
2018-12-19T07:21:46.049Z,35.23
2018-12-19T07:24:16.116Z,33.98
2018-12-19T07:29:16.323Z,34.20
2018-12-19T07:31:44.380Z,31.00
2018-12-19T07:34:12.876Z,34.30
2018-12-19T07:36:40.129Z,41.50
2018-12-19T07:39:07.670Z,36.17
2018-12-19T07:41:34.968Z,37.73
2018-12-19T07:44:02.233Z,32.05
2018-12-19T07:46:30.536Z,34.18
2018-12-19T07:48:57.817Z,34.58
2018-12-19T07:51:25.052Z,31.85
2018-12-19T07:53:53.492Z,35.80
2018-12-19T07:56:20.746Z,31.93
2018-12-19T07:58:48.012Z,34.15
2018-12-19T08:01:15.297Z,34.55
2018-12-19T08:03:42.556Z,35.58
2018-12-19T08:06:09.812Z,35.75
2018-12-19T08:08:37.060Z,35.03
2018-12-19T08:11:04.309Z,27.27
2018-12-19T08:13:31.553Z,35.73
2018-12-19T08:15:58.800Z,31.33
2018-12-19T08:18:26.187Z,33.02
2018-12-19T08:20:53.550Z,31.27
2018-12-19T08:23:21.872Z,28.67
2018-12-19T08:25:50.290Z,37.67
2018-12-19T08:28:17.567Z,31.90
2018-12-19T08:30:44.845Z,34.85
2018-12-19T08:33:12.108Z,34.85
2018-12-19T08:35:39.349Z,32.33
2018-12-19T08:38:07.648Z,31.85
2018-12-19T08:40:34.892Z,31.80
2018-12-19T08:43:02.278Z,33.33
2018-12-19T08:45:30.140Z,30.62
2018-12-19T08:47:57.492Z,33.95
2018-12-19T08:50:26.764Z,31.15
2018-12-19T08:52:54.042Z,30.88
2018-12-19T08:55:21.372Z,36.40
2018-12-19T08:57:48.757Z,36.08
2018-12-19T09:00:16.017Z,37.58
2018-12-19T09:02:43.306Z,37.00
2018-12-19T09:05:10.549Z,36.15
2018-12-19T09:07:43.602Z,34.40
2018-12-19T09:10:10.892Z,29.15
2018-12-19T09:12:38.117Z,32.83
2018-12-19T09:15:06.382Z,29.55
2018-12-19T09:17:33.814Z,30.88
2018-12-19T09:20:03.709Z,33.33
2018-12-19T09:22:30.990Z,35.23
2018-12-19T09:24:58.473Z,30.97
2018-12-19T09:27:25.713Z,35.43
2018-12-19T09:29:53.029Z,35.90
2018-12-19T09:32:21.378Z,38.30
2018-12-19T09:34:48.634Z,32.85
2018-12-19T09:37:16.011Z,37.88
2018-12-19T09:39:43.272Z,35.30
2018-12-19T09:42:10.518Z,32.42
2018-12-19T09:44:37.804Z,31.87
2018-12-19T09:47:05.061Z,34.92
2018-12-19T09:49:32.350Z,31.85
2018-12-19T09:51:59.624Z,33.98
2018-12-19T09:54:26.860Z,34.35
2018-12-19T09:56:54.096Z,35.83
2018-12-19T09:59:21.348Z,33.63
2018-12-19T10:01:48.688Z,29.67
2018-12-19T10:04:15.926Z,35.63
2018-12-19T10:09:36.913Z,32.63
2018-12-19T10:12:04.208Z,37.63
2018-12-19T10:14:31.478Z,36.40
2018-12-19T10:16:58.825Z,30.88
2018-12-19T10:19:26.064Z,32.08
2018-12-19T10:21:53.316Z,35.05
2018-12-19T10:24:23.254Z,35.92
2018-12-19T10:26:50.550Z,34.10
2018-12-19T10:29:18.846Z,33.90
2018-12-19T10:31:46.263Z,31.90
2018-12-19T10:34:16.852Z,34.95
2018-12-19T10:36:44.096Z,32.60
2018-12-19T10:39:15.808Z,26.77
2018-12-19T10:41:43.067Z,32.33
2018-12-19T10:44:10.644Z,31.07
2018-12-19T10:46:39.245Z,35.73
2018-12-19T10:49:07.620Z,30.88
2018-12-19T10:51:34.911Z,38.50
2018-12-19T10:54:02.209Z,29.98
2018-12-19T10:56:29.511Z,34.55
2018-12-19T10:58:56.781Z,28.47
2018-12-19T11:01:24.057Z,31.07
2018-12-19T11:03:51.318Z,30.17
2018-12-19T11:06:18.584Z,33.85
2018-12-19T11:08:45.900Z,26.07
2018-12-19T11:11:13.156Z,32.15
2018-12-19T11:13:40.413Z,35.95
2018-12-19T11:16:08.706Z,31.90
2018-12-19T11:18:35.945Z,28.80
2018-12-19T11:21:03.425Z,35.80
2018-12-19T11:23:30.816Z,31.40
2018-12-19T11:25:58.064Z,29.77
2018-12-19T11:28:25.304Z,29.70
2018-12-19T11:30:53.569Z,31.00
2018-12-19T11:33:20.921Z,26.90
2018-12-19T11:35:48.974Z,31.15
2018-12-19T11:38:16.257Z,27.30
2018-12-19T11:40:43.529Z,29.72
2018-12-19T11:43:10.766Z,26.25
2018-12-19T11:45:38.060Z,32.03
2018-12-19T11:48:05.300Z,25.20
2018-12-19T11:50:32.560Z,33.45
2018-12-19T11:52:59.832Z,29.72
2018-12-19T11:55:27.593Z,29.10
2018-12-19T11:57:54.876Z,32.60
2018-12-19T12:00:22.111Z,32.60
2018-12-19T12:02:49.350Z,26.93
2018-12-19T12:05:16.808Z,30.02
2018-12-19T12:07:46.048Z,29.20
2018-12-19T12:10:13.332Z,30.43
2018-12-19T12:12:40.676Z,32.07
2018-12-19T12:15:08.997Z,31.52
2018-12-19T12:17:36.370Z,45.88
2018-12-19T12:20:05.513Z,31.02
2018-12-19T12:22:32.761Z,24.30
2018-12-19T12:25:00.022Z,27.58
2018-12-19T12:27:28.396Z,26.93
2018-12-19T12:29:57.740Z,24.70
2018-12-19T12:32:26.224Z,29.52
2018-12-19T12:34:53.629Z,25.90
2018-12-19T12:37:20.886Z,28.85
2018-12-19T12:39:48.248Z,34.03
2018-12-19T12:42:16.648Z,30.02
2018-12-19T12:44:44.367Z,28.38
2018-12-19T12:47:12.185Z,29.57
2018-12-19T12:49:39.641Z,32.65
2018-12-19T12:52:06.934Z,29.00
2018-12-19T12:54:34.532Z,32.50
2018-12-19T12:57:03.054Z,33.25
2018-12-19T12:59:30.566Z,29.90
2018-12-19T13:01:57.821Z,29.80
2018-12-19T13:04:25.111Z,32.00
2018-12-19T13:06:52.432Z,28.27
2018-12-19T13:09:19.709Z,28.83
2018-12-19T13:11:47.004Z,31.77
2018-12-19T13:14:16.736Z,28.90
2018-12-19T13:16:43.983Z,28.55
2018-12-19T13:19:11.246Z,40.70
2018-12-19T13:21:42.051Z,26.95
2018-12-19T13:24:11.424Z,23.70
2018-12-19T13:26:38.857Z,36.00
2018-12-19T13:29:06.111Z,32.15
2018-12-19T13:31:37.436Z,29.27
2018-12-19T13:34:05.756Z,30.07
2018-12-19T13:36:33.054Z,30.70
2018-12-19T13:39:01.325Z,27.90
2018-12-19T13:41:30.729Z,29.27
2018-12-19T13:43:57.952Z,34.80
2018-12-19T13:46:25.573Z,27.17
2018-12-19T13:48:52.838Z,25.10
2018-12-19T13:51:20.176Z,32.80
2018-12-19T13:53:47.531Z,28.50
2018-12-19T13:56:14.792Z,26.93
2018-12-19T13:58:42.584Z,28.83
2018-12-19T14:01:09.906Z,30.40
2018-12-19T14:03:37.384Z,33.17
2018-12-19T14:06:04.790Z,28.40
2018-12-19T14:08:32.177Z,31.03
2018-12-19T14:11:00.551Z,29.10
2018-12-19T14:13:27.797Z,36.10
2018-12-19T14:15:55.041Z,28.23
2018-12-19T14:18:22.325Z,27.87
2018-12-19T14:20:49.553Z,31.63
2018-12-19T14:23:16.780Z,27.03
2018-12-19T14:25:43.993Z,30.97
2018-12-19T14:28:11.232Z,32.70
2018-12-19T14:30:39.008Z,27.77
2018-12-19T14:33:07.277Z,32.90
2018-12-19T14:35:34.521Z,32.60
2018-12-19T14:38:02.816Z,36.63
2018-12-19T14:40:35.192Z,32.50
2018-12-19T14:43:04.448Z,25.97
2018-12-19T14:45:31.921Z,28.97
2018-12-19T14:47:59.284Z,27.23
2018-12-19T14:50:27.543Z,35.70
2018-12-19T14:52:54.797Z,36.17
2018-12-19T14:55:26.981Z,23.70
2018-12-19T14:57:54.366Z,29.53
2018-12-19T15:00:21.760Z,31.43
2018-12-19T15:02:49.140Z,33.70
2018-12-19T15:05:16.385Z,31.83
2018-12-19T15:07:44.672Z,30.50
2018-12-19T15:10:11.912Z,30.30
2018-12-19T15:12:39.283Z,38.30
2018-12-19T15:15:08.378Z,36.75
2018-12-19T15:17:36.700Z,36.33
2018-12-19T15:20:04.785Z,36.30
2018-12-19T15:22:32.087Z,42.07
2018-12-19T15:24:59.469Z,38.00
2018-12-19T15:27:26.723Z,39.53
2018-12-19T15:29:53.973Z,36.13
2018-12-19T15:32:22.308Z,43.60
2018-12-19T15:34:49.546Z,49.93
2018-12-19T15:37:17.845Z,44.33
2018-12-19T15:39:45.097Z,46.27
2018-12-19T15:42:12.341Z,52.17
2018-12-19T15:44:39.582Z,50.90
2018-12-19T15:47:06.824Z,48.07
2018-12-19T15:49:34.069Z,44.53
2018-12-19T15:52:01.332Z,46.47
2018-12-19T15:54:29.628Z,49.53
2018-12-19T15:56:56.871Z,39.77
2018-12-19T15:59:24.133Z,46.93
2018-12-19T16:01:51.426Z,58.20
2018-12-19T16:04:18.700Z,50.70
2018-12-19T16:07:02.856Z,41.33
2018-12-19T16:09:30.059Z,46.60
2018-12-19T16:11:57.299Z,55.77
2018-12-19T16:14:24.505Z,56.33
2018-12-19T16:16:51.740Z,54.33
2018-12-19T16:19:18.965Z,62.83
2018-12-19T16:21:46.188Z,52.10
2018-12-19T16:24:13.388Z,61.30
2018-12-19T16:26:40.600Z,53.97
2018-12-19T16:29:08.826Z,53.50
2018-12-19T16:31:36.064Z,39.87
2018-12-19T16:34:03.279Z,40.93
2018-12-19T16:36:30.508Z,44.43
2018-12-19T16:38:57.741Z,46.27
2018-12-19T16:41:24.960Z,45.80
2018-12-19T16:43:52.180Z,50.20
2018-12-19T16:46:19.392Z,45.47
2018-12-19T16:48:46.604Z,45.33
2018-12-19T16:51:13.852Z,43.90
2018-12-19T16:53:41.096Z,42.37
2018-12-19T16:56:08.302Z,41.30
2018-12-19T16:58:35.566Z,43.07
2018-12-19T17:01:12.528Z,45.90
2018-12-19T17:03:52.332Z,43.43
2018-12-19T17:06:32.021Z,45.73
2018-12-19T17:09:16.204Z,47.47
2018-12-19T17:11:58.893Z,43.70
2018-12-19T17:14:45.241Z,40.00
2018-12-19T17:17:30.231Z,43.90
2018-12-19T17:20:10.230Z,41.70
2018-12-19T17:22:47.868Z,35.80
2018-12-19T17:25:15.128Z,39.97
2018-12-19T17:27:42.350Z,45.10
2018-12-19T17:30:09.562Z,41.93
2018-12-19T17:32:37.061Z,36.37
2018-12-19T17:35:04.740Z,41.63
2018-12-19T17:37:31.980Z,45.77
2018-12-19T17:39:59.325Z,44.73
2018-12-19T17:42:26.544Z,44.97
2018-12-19T17:44:53.764Z,49.70
2018-12-19T17:47:21.008Z,48.40
2018-12-19T17:49:49.836Z,44.30
2018-12-19T17:52:34.028Z,42.60
2018-12-19T17:55:01.280Z,42.77
2018-12-19T17:57:28.604Z,49.53
2018-12-19T17:59:55.945Z,46.30
2018-12-19T18:02:23.289Z,49.10
2018-12-19T18:04:50.496Z,49.33
2018-12-19T18:07:18.840Z,47.73
2018-12-19T18:09:46.154Z,56.40
2018-12-19T18:12:13.349Z,50.63
2018-12-19T18:14:40.686Z,51.50
2018-12-19T18:17:07.935Z,51.80
2018-12-19T18:19:35.150Z,47.10
2018-12-19T18:22:02.353Z,44.07
2018-12-19T18:24:29.569Z,50.73
2018-12-19T18:26:56.776Z,46.50
2018-12-19T18:29:24.117Z,57.50
2018-12-19T18:31:51.465Z,47.87
2018-12-19T18:34:18.689Z,52.37
2018-12-19T18:36:46.074Z,48.93
2018-12-19T18:39:13.277Z,48.77
2018-12-19T18:41:40.500Z,49.43
2018-12-19T18:44:07.877Z,56.13
2018-12-19T18:46:35.084Z,50.90
2018-12-19T18:49:02.307Z,49.00
2018-12-19T18:51:29.700Z,48.97
2018-12-19T18:53:56.936Z,53.80
2018-12-19T18:56:24.279Z,49.63
2018-12-19T19:00:20.617Z,49.17
2018-12-19T19:02:48.010Z,54.27
2018-12-19T19:05:16.291Z,43.40
2018-12-19T19:07:43.652Z,48.20
2018-12-19T19:10:10.949Z,45.27
2018-12-19T19:12:38.268Z,46.20
2018-12-19T19:15:06.156Z,44.70
2018-12-19T19:17:33.718Z,42.03
2018-12-19T19:20:01.048Z,39.77
2018-12-19T19:22:28.369Z,41.77
2018-12-19T19:24:56.136Z,37.93
2018-12-19T19:27:23.442Z,43.33
2018-12-19T19:29:50.644Z,39.60
2018-12-19T19:32:19.081Z,47.80
2018-12-19T19:34:46.276Z,39.07
2018-12-19T19:37:13.702Z,36.17
2018-12-19T19:39:40.952Z,44.37
2018-12-19T19:42:08.408Z,38.00
2018-12-19T19:44:35.605Z,35.93
2018-12-19T19:47:04.264Z,39.70
2018-12-19T19:49:31.614Z,37.40
2018-12-19T19:51:58.944Z,42.47
2018-12-19T19:54:26.188Z,37.63
2018-12-19T19:56:53.510Z,38.25
2018-12-19T19:59:21.753Z,41.00
2018-12-19T20:01:49.243Z,36.80
2018-12-19T20:04:16.448Z,34.90
2018-12-19T20:06:43.725Z,36.80
2018-12-19T20:09:10.994Z,30.57
2018-12-19T20:11:38.345Z,28.77
2018-12-19T20:14:05.732Z,34.13
2018-12-19T20:16:37.537Z,34.40
2018-12-19T20:19:04.756Z,33.93
2018-12-19T20:21:32.081Z,34.03
2018-12-19T20:23:59.301Z,35.60
2018-12-19T20:26:26.600Z,35.53
2018-12-19T20:28:53.797Z,33.30
2018-12-19T20:31:21.035Z,30.17
2018-12-19T20:33:48.745Z,33.40
2018-12-19T20:36:16.039Z,32.17
2018-12-19T20:38:43.513Z,36.50
2018-12-19T20:41:10.748Z,35.50
2018-12-19T20:43:40.108Z,33.50
2018-12-19T20:46:07.593Z,29.00
2018-12-19T20:48:35.071Z,38.43
2018-12-19T20:51:02.300Z,31.43
2018-12-19T20:53:29.913Z,30.60
2018-12-19T20:56:03.593Z,29.97
2018-12-19T20:58:26.366Z,31.03
2018-12-19T21:00:53.719Z,35.33
2018-12-19T21:03:21.149Z,32.17
2018-12-19T21:12:45.532Z,31.40
2018-12-19T21:15:12.949Z,31.57
2018-12-19T21:17:46.442Z,30.33
2018-12-19T21:20:13.801Z,28.10
2018-12-19T21:22:41.129Z,30.33
2018-12-19T21:25:09.800Z,31.37
2018-12-19T21:27:37.305Z,33.30
2018-12-19T21:30:06.225Z,31.57
2018-12-19T21:32:33.920Z,29.73
2018-12-19T21:35:01.152Z,31.10
2018-12-19T21:37:28.471Z,33.60
2018-12-19T21:39:56.813Z,34.00
2018-12-19T21:42:24.922Z,38.70
2018-12-19T21:44:52.391Z,34.20
2018-12-19T21:47:20.256Z,37.90
2018-12-19T21:49:47.673Z,31.10
2018-12-19T21:52:14.982Z,31.17
2018-12-19T21:54:42.321Z,28.40
2018-12-19T21:57:09.589Z,31.90
2018-12-19T21:59:36.932Z,32.77
2018-12-19T22:02:04.334Z,35.53
2018-12-19T22:04:31.932Z,33.47
2018-12-19T22:06:59.260Z,32.37
2018-12-19T22:09:26.638Z,35.45
2018-12-19T22:11:54.044Z,30.40
2018-12-19T22:14:21.369Z,32.93
2018-12-19T22:16:54.493Z,38.73
2018-12-19T22:19:21.795Z,33.07
2018-12-19T22:21:49.136Z,31.48
2018-12-19T22:24:16.478Z,32.30
2018-12-19T22:26:43.966Z,37.83
2018-12-19T22:29:12.336Z,31.07
2018-12-19T22:31:39.652Z,29.30
2018-12-19T22:34:07.099Z,30.13
2018-12-19T22:36:34.290Z,28.17
2018-12-19T22:39:01.546Z,30.67
2018-12-19T22:41:31.133Z,32.43
2018-12-19T22:43:58.447Z,28.00
2018-12-19T22:46:25.912Z,27.90
2018-12-19T22:48:53.147Z,28.80
2018-12-19T22:51:20.476Z,29.27
2018-12-19T22:53:47.849Z,30.73
2018-12-19T22:56:15.173Z,32.07
2018-12-19T22:58:42.559Z,29.60
2018-12-19T23:01:16.459Z,32.57
2018-12-19T23:04:06.273Z,31.37
2018-12-19T23:06:35.208Z,30.63
2018-12-19T23:09:04.644Z,31.50
2018-12-19T23:11:34.112Z,26.70
2018-12-19T23:14:03.143Z,33.13
2018-12-19T23:16:38.781Z,30.27
2018-12-19T23:19:12.062Z,33.20
2018-12-19T23:21:45.777Z,33.00
2018-12-19T23:24:19.500Z,32.40
2018-12-19T23:26:48.775Z,34.70
2018-12-19T23:29:18.059Z,34.00
2018-12-19T23:31:46.954Z,34.00
2018-12-19T23:34:14.326Z,39.47
2018-12-19T23:36:41.765Z,30.10
2018-12-19T23:39:09.214Z,34.23
2018-12-19T23:41:36.660Z,28.00
2018-12-19T23:44:03.908Z,35.33
2018-12-19T23:46:33.471Z,33.47
2018-12-19T23:49:00.853Z,34.00
2018-12-19T23:51:28.236Z,30.10
2018-12-19T23:53:55.643Z,31.27
2018-12-19T23:56:22.897Z,41.47
2018-12-19T23:58:51.172Z,29.83
